LRBS/BBU METAR and TAF weather

Enter ICAO airport designator
Station Type Date Time Source
LRBS METAR 2022/12/08 13:30 UTC NOAA

LRBS 081330Z 07004KT 040V100 9999 BKN008 OVC012 07/05 Q1016 NOSIG


Station Type Date Time Source
LRBS Decoded METAR 2022/12/08 13:30 UTC NOAA

Bucuresti / Imh, Romania (LRBS) 44-30N 026-08E 91M
Dec 08, 2022 - 08:30 AM EST / 2022.12.08 1330 UTC
Wind: from the ENE (070 degrees) at 5 MPH (4 KT) (direction variable):0
Visibility: greater than 7 mile(s):0
Sky conditions: overcast
Temperature: 44 F (7 C)
Dew Point: 41 F (5 C)
Relative Humidity: 87%
Pressure (altimeter): 30.00 in. Hg (1016 hPa)
ob: LRBS 081330Z 07004KT 040V100 9999 BKN008 OVC012 07/05 Q1016 NOSIG
cycle: 13

Station Type Date Time Source
LRBS TAF 2022/12/08 12:33 UTC NOAA

TAF TAF LRBS 081100Z 0812/0912 VRB04KT 7000 BKN010 OVC030
BECMG 0816/0818 3000 BR BKN005 OVC020
BECMG 0821/0823 1500 -RA BR BKN002 OVC015
BECMG 0901/0903 0600 FG
BECMG 0905/0907 3000 BR BKN005
BECMG 0908/0910 9999 NSW BKN025

Example: see airport list